createdAt,value
2023-04-16T05:46:05.113Z,6.84
2023-04-16T05:56:27.235Z,6.90
2023-04-16T06:06:48.966Z,6.88
2023-04-16T06:17:10.910Z,6.98
2023-04-16T06:27:32.948Z,7.12
2023-04-16T06:37:54.441Z,7.14
2023-04-16T06:48:16.103Z,7.13
2023-04-16T06:58:37.904Z,7.13
2023-04-16T07:09:00.107Z,7.13
2023-04-16T07:19:21.862Z,7.31
2023-04-16T07:29:45.634Z,7.31
2023-04-16T07:40:07.719Z,7.43
2023-04-16T07:50:29.626Z,7.46
2023-04-16T08:00:52.183Z,7.51
2023-04-16T08:11:13.600Z,7.61
2023-04-16T08:21:35.532Z,7.61
2023-04-16T08:31:57.252Z,7.84
2023-04-16T08:42:40.985Z,7.95
2023-04-16T08:53:07.060Z,7.88
2023-04-16T09:03:31.230Z,7.82
2023-04-16T09:13:53.870Z,7.97
2023-04-16T09:24:15.556Z,7.86
2023-04-16T09:34:54.132Z,7.97
2023-04-16T09:45:15.905Z,7.83
2023-04-16T09:55:37.705Z,7.98
2023-04-16T10:06:18.123Z,8.05
2023-04-16T10:16:41.171Z,8.06
2023-04-16T10:27:03.405Z,8.06
2023-04-16T10:37:32.141Z,8.09
2023-04-16T10:47:57.792Z,8.39
2023-04-16T10:58:35.473Z,8.22
2023-04-16T11:08:57.090Z,8.11
2023-04-16T11:19:18.776Z,8.20
2023-04-16T11:29:41.482Z,8.10
2023-04-16T11:40:07.289Z,8.02
2023-04-16T11:50:29.550Z,8.24
2023-04-16T12:00:53.572Z,8.28
2023-04-16T12:11:15.663Z,8.32
2023-04-16T12:21:45.870Z,8.21
2023-04-16T12:32:23.160Z,8.07
2023-04-16T12:42:44.995Z,8.16
2023-04-16T12:53:06.685Z,8.20
2023-04-16T13:03:28.750Z,8.24
2023-04-16T13:13:50.533Z,8.17
2023-04-16T13:24:12.478Z,8.16
2023-04-16T13:34:33.781Z,8.38
2023-04-16T13:44:55.082Z,8.55
2023-04-16T13:55:20.768Z,8.51
2023-04-16T14:05:43.191Z,8.50
2023-04-16T14:16:05.532Z,8.45
2023-04-16T14:26:27.719Z,8.32
2023-04-16T16:04:45.933Z,7.83
2023-04-16T16:15:08.381Z,7.83
2023-04-16T16:25:30.424Z,7.84
2023-04-16T16:35:51.757Z,7.80
2023-04-16T16:46:13.703Z,7.75
2023-04-16T16:56:35.167Z,7.72
2023-04-16T17:06:57.183Z,7.69
2023-04-16T17:17:19.463Z,7.68
2023-04-16T17:27:40.822Z,7.66
2023-04-16T17:38:02.460Z,7.61
2023-04-16T17:48:23.702Z,7.58
2023-04-16T17:58:45.368Z,7.58
2023-04-16T18:09:07.390Z,7.58
2023-04-16T18:19:29.310Z,7.58
2023-04-16T18:29:51.490Z,7.58
2023-04-16T18:40:13.339Z,7.60
2023-04-16T18:50:35.152Z,7.60
2023-04-16T19:01:00.552Z,7.60
2023-04-16T19:11:22.387Z,7.61
2023-04-16T19:21:44.383Z,7.61
2023-04-16T19:32:06.079Z,7.62
2023-04-16T19:42:27.820Z,7.60
2023-04-16T19:52:49.459Z,7.58
2023-04-16T20:03:11.323Z,7.56
2023-04-16T20:13:33.222Z,7.56
2023-04-16T20:23:55.466Z,7.54
2023-04-16T20:34:17.137Z,7.52
2023-04-16T20:44:41.582Z,7.52
2023-04-16T20:55:03.241Z,7.50
2023-04-16T21:05:26.562Z,7.50
